Station Historical Data
Daily Summary for June 27, 2017 Units:  Both    English   Metric
« Previous Day
Next Day »
Daily Weekly Monthly Yearly Custom
  High: Low: Average:
Temperature: 66.6 °F /  19.2 °C 52.4 °F /  11.3 °C 59.8 °F /  15.4 °C
Dew Point: 56.4 °F /  13.6 °C 46.2 °F /  7.9 °C 51.8 °F /  11 °C
Humidity: 88% 62% 75%
Wind Speed: 14.0mph /  22.5km/h - 3.7mph /  6km/h
Wind Gust: 22.0mph /  35.4km/h - -
Wind- - WSW
Pressure: 30.04 in /  1017.2 hPa 29.92 in /  1013.1 hPa -
Precipitation: 0.00 in /  0 mm    
Historical Graphs
 
 
Tabular Data for June 27, 2017
Time Temperature Dew Point Pressure Wind Wind Speed Wind Gust Humidity Rainfall Rate (Hourly)
00:04 57.4 °F /  14.1 °C 49.5 °F /  9.7 °C 29.94in /  1013.8hPa Calm     75% 0.00in /  0mm
00:09 57.5 °F /  14.2 °C 49.6 °F /  9.8 °C 29.94in /  1013.8hPa Calm     75% 0.00in /  0mm
00:14 57.6 °F /  14.2 °C 49.7 °F /  9.8 °C 29.94in /  1013.8hPa Calm     75% 0.00in /  0mm
00:19 57.5 °F /  14.2 °C 49.6 °F /  9.8 °C 29.94in /  1013.8hPa Calm     75% 0.00in /  0mm
00:24 57.3 °F /  14.1 °C 49.8 °F /  9.9 °C 29.94in /  1013.8hPa Calm     76% 0.00in /  0mm
00:29 57.0 °F /  13.9 °C 49.5 °F /  9.7 °C 29.93in /  1013.4hPa Calm     76% 0.00in /  0mm
00:34 56.8 °F /  13.8 °C 49.3 °F /  9.6 °C 29.93in /  1013.4hPa Calm     76% 0.00in /  0mm
00:39 57.1 °F /  13.9 °C 50.0 °F /  10 °C 29.93in /  1013.4hPa South 1.0mph /  1.6km/h 4.0mph /  6.4km/h 77% 0.00in /  0mm
00:44 57.4 °F /  14.1 °C 50.2 °F /  10.1 °C 29.93in /  1013.4hPa South 1.0mph /  1.6km/h 4.0mph /  6.4km/h 77% 0.00in /  0mm
00:49 57.7 °F /  14.3 °C 50.5 °F /  10.3 °C 29.93in /  1013.4hPa South 1.0mph /  1.6km/h 4.0mph /  6.4km/h 77% 0.00in /  0mm
00:54 57.9 °F /  14.4 °C 50.7 °F /  10.4 °C 29.93in /  1013.4hPa South 3.0mph /  4.8km/h 5.0mph /  8km/h 77% 0.00in /  0mm
00:59 58.0 °F /  14.4 °C 50.8 °F /  10.4 °C 29.93in /  1013.4hPa SSE 2.0mph /  3.2km/h 4.0mph /  6.4km/h 77% 0.00in /  0mm
01:04 57.9 °F /  14.4 °C 50.7 °F /  10.4 °C 29.93in /  1013.4hPa South 2.0mph /  3.2km/h 6.0mph /  9.7km/h 77% 0.00in /  0mm
01:09 57.7 °F /  14.3 °C 50.9 °F /  10.5 °C 29.93in /  1013.4hPa South 2.0mph /  3.2km/h 6.0mph /  9.7km/h 78% 0.00in /  0mm
01:14 57.6 °F /  14.2 °C 50.8 °F /  10.4 °C 29.93in /  1013.4hPa Calm   3.0mph /  4.8km/h 78% 0.00in /  0mm
01:19 57.7 °F /  14.3 °C 50.9 °F /  10.5 °C 29.93in /  1013.4hPa South 3.0mph /  4.8km/h 4.0mph /  6.4km/h 78% 0.00in /  0mm
01:24 57.7 °F /  14.3 °C 50.9 °F /  10.5 °C 29.93in /  1013.4hPa South 1.0mph /  1.6km/h 5.0mph /  8km/h 78% 0.00in /  0mm
01:29 57.7 °F /  14.3 °C 50.9 °F /  10.5 °C 29.93in /  1013.4hPa South 4.0mph /  6.4km/h 7.0mph /  11.3km/h 78% 0.00in /  0mm
01:34 57.9 °F /  14.4 °C 50.7 °F /  10.4 °C 29.93in /  1013.4hPa South 2.0mph /  3.2km/h 7.0mph /  11.3km/h 77% 0.00in /  0mm
01:39 58.1 °F /  14.5 °C 50.9 °F /  10.5 °C 29.93in /  1013.4hPa SSW 2.0mph /  3.2km/h 7.0mph /  11.3km/h 77% 0.00in /  0mm
01:44 58.4 °F /  14.7 °C 50.9 °F /  10.5 °C 29.92in /  1013.1hPa South 2.0mph /  3.2km/h 7.0mph /  11.3km/h 76% 0.00in /  0mm
01:49 58.6 °F /  14.8 °C 51.1 °F /  10.6 °C 29.92in /  1013.1hPa South 2.0mph /  3.2km/h 6.0mph /  9.7km/h 76% 0.00in /  0mm
01:54 58.6 °F /  14.8 °C 51.1 °F /  10.6 °C 29.92in /  1013.1hPa South 1.0mph /  1.6km/h 4.0mph /  6.4km/h 76% 0.00in /  0mm
01:59 58.6 °F /  14.8 °C 51.1 °F /  10.6 °C 29.92in /  1013.1hPa West 1.0mph /  1.6km/h 5.0mph /  8km/h 76% 0.00in /  0mm
02:04 58.9 °F /  14.9 °C 50.6 °F /  10.3 °C 29.92in /  1013.1hPa SSW 3.0mph /  4.8km/h 7.0mph /  11.3km/h 74% 0.00in /  0mm
02:09 59.2 °F /  15.1 °C 51.3 °F /  10.7 °C 29.93in /  1013.4hPa SSW 8.0mph /  12.9km/h 18.0mph /  29km/h 75% 0.00in /  0mm
02:14 59.1 °F /  15.1 °C 51.5 °F /  10.8 °C 29.93in /  1013.4hPa SW 3.0mph /  4.8km/h 13.0mph /  20.9km/h 76% 0.00in /  0mm
02:19 58.7 °F /  14.8 °C 51.9 °F /  11.1 °C 29.93in /  1013.4hPa SSW 7.0mph /  11.3km/h 12.0mph /  19.3km/h 78% 0.00in /  0mm
02:24 58.2 °F /  14.6 °C 52.1 °F /  11.2 °C 29.93in /  1013.4hPa WSW 5.0mph /  8km/h 11.0mph /  17.7km/h 80% 0.00in /  0mm
02:29 58.0 °F /  14.4 °C 52.2 °F /  11.2 °C 29.93in /  1013.4hPa SW 4.0mph /  6.4km/h 11.0mph /  17.7km/h 81% 0.00in /  0mm
02:34 57.8 °F /  14.3 °C 52.3 °F /  11.3 °C 29.93in /  1013.4hPa SW 3.0mph /  4.8km/h 6.0mph /  9.7km/h 82% 0.00in /  0mm
02:39 57.7 °F /  14.3 °C 52.2 °F /  11.2 °C 29.93in /  1013.4hPa WSW 2.0mph /  3.2km/h 4.0mph /  6.4km/h 82% 0.00in /  0mm
02:44 57.7 °F /  14.3 °C 52.6 °F /  11.4 °C 29.93in /  1013.4hPa WSW 2.0mph /  3.2km/h 4.0mph /  6.4km/h 83% 0.00in /  0mm
02:49 57.8 °F /  14.3 °C 52.3 °F /  11.3 °C 29.92in /  1013.1hPa Calm   3.0mph /  4.8km/h 82% 0.00in /  0mm
02:54 57.8 °F /  14.3 °C 52.3 °F /  11.3 °C 29.92in /  1013.1hPa Calm   1.0mph /  1.6km/h 82% 0.00in /  0mm
02:59 57.8 °F /  14.3 °C 52.3 °F /  11.3 °C 29.92in /  1013.1hPa Calm   3.0mph /  4.8km/h 82% 0.00in /  0mm
03:04 57.7 °F /  14.3 °C 52.2 °F /  11.2 °C 29.92in /  1013.1hPa WSW 1.0mph /  1.6km/h 3.0mph /  4.8km/h 82% 0.00in /  0mm
03:09 57.7 °F /  14.3 °C 51.6 °F /  10.9 °C 29.92in /  1013.1hPa West 1.0mph /  1.6km/h 5.0mph /  8km/h 80% 0.00in /  0mm
03:14 57.8 °F /  14.3 °C 51.7 °F /  10.9 °C 29.92in /  1013.1hPa West 2.0mph /  3.2km/h 5.0mph /  8km/h 80% 0.00in /  0mm
03:19 57.8 °F /  14.3 °C 51.3 °F /  10.7 °C 29.93in /  1013.4hPa West 1.0mph /  1.6km/h 4.0mph /  6.4km/h 79% 0.00in /  0mm
03:24 57.8 °F /  14.3 °C 51.3 °F /  10.7 °C 29.93in /  1013.4hPa SSW 2.0mph /  3.2km/h 3.0mph /  4.8km/h 79% 0.00in /  0mm
03:29 57.7 °F /  14.3 °C 51.9 °F /  11.1 °C 29.94in /  1013.8hPa SSW 2.0mph /  3.2km/h 5.0mph /  8km/h 81% 0.01in /  0.25mm
03:34 57.3 °F /  14.1 °C 51.5 °F /  10.8 °C 29.93in /  1013.4hPa SSW 2.0mph /  3.2km/h 7.0mph /  11.3km/h 81% 0.01in /  0.25mm
03:39 56.8 °F /  13.8 °C 51.4 °F /  10.8 °C 29.93in /  1013.4hPa Calm   4.0mph /  6.4km/h 82% 0.01in /  0.25mm
03:44 56.6 °F /  13.7 °C 51.2 °F /  10.7 °C 29.93in /  1013.4hPa SSW 1.0mph /  1.6km/h 3.0mph /  4.8km/h 82% 0.01in /  0.25mm
03:49 56.5 °F /  13.6 °C 51.4 °F /  10.8 °C 29.93in /  1013.4hPa SSW 2.0mph /  3.2km/h 3.0mph /  4.8km/h 83% 0.01in /  0.25mm
03:54 56.5 °F /  13.6 °C 51.4 °F /  10.8 °C 29.94in /  1013.8hPa SSW 3.0mph /  4.8km/h 5.0mph /  8km/h 83% 0.01in /  0.25mm
03:59 56.4 °F /  13.6 °C 51.3 °F /  10.7 °C 29.94in /  1013.8hPa Calm   5.0mph /  8km/h 83% 0.01in /  0.25mm
04:04 56.4 °F /  13.6 °C 51.6 °F /  10.9 °C 29.93in /  1013.4hPa SSW 2.0mph /  3.2km/h 7.0mph /  11.3km/h 84% 0.01in /  0.25mm
04:09 56.2 °F /  13.4 °C 51.4 °F /  10.8 °C 29.93in /  1013.4hPa SSW 1.0mph /  1.6km/h 7.0mph /  11.3km/h 84% 0.01in /  0.25mm
04:14 56.1 °F /  13.4 °C 51.3 °F /  10.7 °C 29.94in /  1013.8hPa SSW 1.0mph /  1.6km/h 6.0mph /  9.7km/h 84% 0.02in /  0.51mm
04:19 56.0 °F /  13.3 °C 51.2 °F /  10.7 °C 29.93in /  1013.4hPa SSE 6.0mph /  9.7km/h 6.0mph /  9.7km/h 84% 0.02in /  0.51mm
04:24 55.9 °F /  13.3 °C 51.1 °F /  10.6 °C 29.93in /  1013.4hPa South 1.0mph /  1.6km/h 6.0mph /  9.7km/h 84% 0.02in /  0.51mm
04:29 55.9 °F /  13.3 °C 51.1 °F /  10.6 °C 29.93in /  1013.4hPa South 4.0mph /  6.4km/h 6.0mph /  9.7km/h 84% 0.01in /  0.25mm
04:34 55.8 °F /  13.2 °C 51.0 °F /  10.6 °C 29.93in /  1013.4hPa South 2.0mph /  3.2km/h 6.0mph /  9.7km/h 84% 0.01in /  0.25mm
04:39 55.6 °F /  13.1 °C 50.8 °F /  10.4 °C 29.92in /  1013.1hPa SSE 3.0mph /  4.8km/h 7.0mph /  11.3km/h 84% 0.01in /  0.25mm
04:44 55.5 °F /  13.1 °C 50.4 °F /  10.2 °C 29.92in /  1013.1hPa SSE 3.0mph /  4.8km/h 7.0mph /  11.3km/h 83% 0.01in /  0.25mm
04:49 55.5 °F /  13.1 °C 50.7 °F /  10.4 °C 29.93in /  1013.4hPa Calm   4.0mph /  6.4km/h 84% 0.01in /  0.25mm
04:54 55.4 °F /  13 °C 50.6 °F /  10.3 °C 29.93in /  1013.4hPa SSW 1.0mph /  1.6km/h 4.0mph /  6.4km/h 84% 0.01in /  0.25mm
04:59 55.2 °F /  12.9 °C 50.1 °F /  10.1 °C 29.93in /  1013.4hPa South 2.0mph /  3.2km/h 5.0mph /  8km/h 83% 0.01in /  0.25mm
05:04 55.0 °F /  12.8 °C 49.9 °F /  9.9 °C 29.93in /  1013.4hPa SSW 3.0mph /  4.8km/h 6.0mph /  9.7km/h 83% 0.01in /  0.25mm
05:09 54.9 °F /  12.7 °C 49.8 °F /  9.9 °C 29.93in /  1013.4hPa SSW 3.0mph /  4.8km/h 6.0mph /  9.7km/h 83% 0.01in /  0.25mm
05:14 54.8 °F /  12.7 °C 49.7 °F /  9.8 °C 29.93in /  1013.4hPa SSW 3.0mph /  4.8km/h 10.0mph /  16.1km/h 83% 0.00in /  0mm
05:19 54.9 °F /  12.7 °C 50.2 °F /  10.1 °C 29.93in /  1013.4hPa SSW 4.0mph /  6.4km/h 12.0mph /  19.3km/h 84% 0.00in /  0mm
05:24 54.9 °F /  12.7 °C 50.2 °F /  10.1 °C 29.94in /  1013.8hPa SSW 5.0mph /  8km/h 12.0mph /  19.3km/h 84% 0.05in /  1.27mm
05:29 55.1 °F /  12.8 °C 50.7 °F /  10.4 °C 29.94in /  1013.8hPa SW 5.0mph /  8km/h 11.0mph /  17.7km/h 85% 0.06in /  1.52mm
05:34 54.9 °F /  12.7 °C 50.8 °F /  10.4 °C 29.94in /  1013.8hPa WSW 6.0mph /  9.7km/h 15.0mph /  24.1km/h 86% 0.07in /  1.78mm
05:39 54.5 °F /  12.5 °C 50.1 °F /  10.1 °C 29.94in /  1013.8hPa WSW 5.0mph /  8km/h 14.0mph /  22.5km/h 85% 0.07in /  1.78mm
05:44 54.3 °F /  12.4 °C 50.2 °F /  10.1 °C 29.94in /  1013.8hPa West 4.0mph /  6.4km/h 7.0mph /  11.3km/h 86% 0.07in /  1.78mm
05:49 54.2 °F /  12.3 °C 50.1 °F /  10.1 °C 29.94in /  1013.8hPa West 5.0mph /  8km/h 12.0mph /  19.3km/h 86% 0.07in /  1.78mm
05:54 54.1 °F /  12.3 °C 50.0 °F /  10 °C 29.94in /  1013.8hPa West 2.0mph /  3.2km/h 8.0mph /  12.9km/h 86% 0.07in /  1.78mm
05:59 54.1 °F /  12.3 °C 50.0 °F /  10 °C 29.93in /  1013.4hPa WNW 2.0mph /  3.2km/h 7.0mph /  11.3km/h 86% 0.07in /  1.78mm
06:04 54.1 °F /  12.3 °C 49.7 °F /  9.8 °C 29.93in /  1013.4hPa West 3.0mph /  4.8km/h 7.0mph /  11.3km/h 85% 0.07in /  1.78mm
06:09 54.0 °F /  12.2 °C 49.9 °F /  9.9 °C 29.93in /  1013.4hPa WNW 1.0mph /  1.6km/h 3.0mph /  4.8km/h 86% 0.08in /  2.03mm
06:14 54.1 °F /  12.3 °C 50.0 °F /  10 °C 29.93in /  1013.4hPa Calm   2.0mph /  3.2km/h 86% 0.08in /  2.03mm
06:19 54.1 °F /  12.3 °C 50.3 °F /  10.2 °C 29.94in /  1013.8hPa WNW 1.0mph /  1.6km/h 3.0mph /  4.8km/h 87% 0.07in /  1.78mm
06:24 54.1 °F /  12.3 °C 50.3 °F /  10.2 °C 29.94in /  1013.8hPa Calm   2.0mph /  3.2km/h 87% 0.03in /  0.76mm
06:29 54.1 °F /  12.3 °C 50.3 °F /  10.2 °C 29.94in /  1013.8hPa Calm     87% 0.02in /  0.51mm
06:34 54.1 °F /  12.3 °C 50.6 °F /  10.3 °C 29.94in /  1013.8hPa Calm     88% 0.01in /  0.25mm
06:39 54.2 °F /  12.3 °C 50.7 °F /  10.4 °C 29.94in /  1013.8hPa Calm     88% 0.01in /  0.25mm
06:44 54.4 °F /  12.4 °C 50.9 °F /  10.5 °C 29.94in /  1013.8hPa Calm     88% 0.01in /  0.25mm
06:49 54.6 °F /  12.6 °C 51.1 °F /  10.6 °C 29.94in /  1013.8hPa Calm     88% 0.01in /  0.25mm
06:54 54.6 °F /  12.6 °C 51.1 °F /  10.6 °C 29.94in /  1013.8hPa Calm     88% 0.01in /  0.25mm
06:59 54.8 °F /  12.7 °C 51.3 °F /  10.7 °C 29.94in /  1013.8hPa Calm     88% 0.01in /  0.25mm
07:04 55.0 °F /  12.8 °C 51.5 °F /  10.8 °C 29.94in /  1013.8hPa Calm     88% 0.01in /  0.25mm
07:09 55.1 °F /  12.8 °C 51.6 °F /  10.9 °C 29.94in /  1013.8hPa Calm     88% 0.00in /  0mm
07:14 55.1 °F /  12.8 °C 51.6 °F /  10.9 °C 29.94in /  1013.8hPa Calm     88% 0.00in /  0mm
07:19 55.5 °F /  13.1 °C 52.0 °F /  11.1 °C 29.94in /  1013.8hPa South 2.0mph /  3.2km/h 3.0mph /  4.8km/h 88% 0.00in /  0mm
07:24 56.0 °F /  13.3 °C 52.5 °F /  11.4 °C 29.94in /  1013.8hPa South 1.0mph /  1.6km/h 5.0mph /  8km/h 88% 0.00in /  0mm
07:29 56.4 °F /  13.6 °C 52.6 °F /  11.4 °C 29.94in /  1013.8hPa SSW 2.0mph /  3.2km/h 7.0mph /  11.3km/h 87% 0.00in /  0mm
07:34 57.2 °F /  14 °C 53.4 °F /  11.9 °C 29.94in /  1013.8hPa SSW 2.0mph /  3.2km/h 7.0mph /  11.3km/h 87% 0.00in /  0mm
07:39 57.1 °F /  13.9 °C 52.6 °F /  11.4 °C 29.94in /  1013.8hPa SSW 3.0mph /  4.8km/h 8.0mph /  12.9km/h 85% 0.00in /  0mm
07:44 56.2 °F /  13.4 °C 51.4 °F /  10.8 °C 29.94in /  1013.8hPa SSW 4.0mph /  6.4km/h 9.0mph /  14.5km/h 84% 0.00in /  0mm
07:49 55.7 °F /  13.2 °C 50.9 °F /  10.5 °C 29.94in /  1013.8hPa SW 3.0mph /  4.8km/h 9.0mph /  14.5km/h 84% 0.00in /  0mm
07:54 55.5 °F /  13.1 °C 50.7 °F /  10.4 °C 29.95in /  1014.1hPa WSW 2.0mph /  3.2km/h 4.0mph /  6.4km/h 84% 0.00in /  0mm
07:59 55.6 °F /  13.1 °C 51.2 °F /  10.7 °C 29.95in /  1014.1hPa WSW 2.0mph /  3.2km/h 4.0mph /  6.4km/h 85% 0.00in /  0mm
08:04 55.8 °F /  13.2 °C 51.4 °F /  10.8 °C 29.95in /  1014.1hPa West 1.0mph /  1.6km/h 4.0mph /  6.4km/h 85% 0.00in /  0mm
08:09 56.0 °F /  13.3 °C 51.6 °F /  10.9 °C 29.95in /  1014.1hPa SSW 1.0mph /  1.6km/h 4.0mph /  6.4km/h 85% 0.00in /  0mm
08:14 56.2 °F /  13.4 °C 51.1 °F /  10.6 °C 29.95in /  1014.1hPa South 4.0mph /  6.4km/h 5.0mph /  8km/h 83% 0.00in /  0mm
08:19 56.5 °F /  13.6 °C 51.4 °F /  10.8 °C 29.95in /  1014.1hPa WSW 3.0mph /  4.8km/h 6.0mph /  9.7km/h 83% 0.00in /  0mm
08:24 56.8 °F /  13.8 °C 51.4 °F /  10.8 °C 29.95in /  1014.1hPa West 5.0mph /  8km/h 8.0mph /  12.9km/h 82% 0.00in /  0mm
08:29 57.4 °F /  14.1 °C 51.6 °F /  10.9 °C 29.95in /  1014.1hPa SW 4.0mph /  6.4km/h 8.0mph /  12.9km/h 81% 0.00in /  0mm
08:34 57.9 °F /  14.4 °C 51.4 °F /  10.8 °C 29.95in /  1014.1hPa SW 4.0mph /  6.4km/h 8.0mph /  12.9km/h 79% 0.00in /  0mm
08:39 58.2 °F /  14.6 °C 51.4 °F /  10.8 °C 29.95in /  1014.1hPa SW 4.0mph /  6.4km/h 9.0mph /  14.5km/h 78% 0.00in /  0mm
08:44 57.7 °F /  14.3 °C 49.8 °F /  9.9 °C 29.96in /  1014.4hPa NW 1.0mph /  1.6km/h 12.0mph /  19.3km/h 75% 0.00in /  0mm
08:49 55.3 °F /  12.9 °C 47.2 °F /  8.4 °C 29.96in /  1014.4hPa WNW 1.0mph /  1.6km/h 7.0mph /  11.3km/h 74% 0.00in /  0mm
08:54 54.2 °F /  12.3 °C 46.8 °F /  8.2 °C 29.95in /  1014.1hPa NNW 2.0mph /  3.2km/h 6.0mph /  9.7km/h 76% 0.00in /  0mm
08:59 53.6 °F /  12 °C 46.2 °F /  7.9 °C 29.95in /  1014.1hPa NNW 2.0mph /  3.2km/h 6.0mph /  9.7km/h 76% 0.01in /  0.25mm
09:04 53.2 °F /  11.8 °C 47.2 °F /  8.4 °C 29.95in /  1014.1hPa North 1.0mph /  1.6km/h 5.0mph /  8km/h 80% 0.03in /  0.76mm
09:09 52.9 °F /  11.6 °C 47.6 °F /  8.7 °C 29.97in /  1014.8hPa NNW 1.0mph /  1.6km/h 5.0mph /  8km/h 82% 0.03in /  0.76mm
09:14 52.6 °F /  11.4 °C 47.6 °F /  8.7 °C 29.97in /  1014.8hPa Calm   5.0mph /  8km/h 83% 0.06in /  1.52mm
09:19 52.4 °F /  11.3 °C 47.7 °F /  8.7 °C 29.97in /  1014.8hPa NW 2.0mph /  3.2km/h 3.0mph /  4.8km/h 84% 0.07in /  1.78mm
09:24 52.4 °F /  11.3 °C 48.0 °F /  8.9 °C 29.97in /  1014.8hPa Calm   2.0mph /  3.2km/h 85% 0.08in /  2.03mm
09:29 52.6 °F /  11.4 °C 48.5 °F /  9.2 °C 29.97in /  1014.8hPa Calm   2.0mph /  3.2km/h 86% 0.12in /  3.05mm
09:34 53.0 °F /  11.7 °C 49.2 °F /  9.6 °C 29.96in /  1014.4hPa Calm     87% 0.12in /  3.05mm
09:39 53.3 °F /  11.8 °C 49.5 °F /  9.7 °C 29.96in /  1014.4hPa Calm   9.0mph /  14.5km/h 87% 0.12in /  3.05mm
09:44 54.5 °F /  12.5 °C 50.7 °F /  10.4 °C 29.96in /  1014.4hPa South 3.0mph /  4.8km/h 7.0mph /  11.3km/h 87% 0.12in /  3.05mm
09:49 55.3 °F /  12.9 °C 50.9 °F /  10.5 °C 29.97in /  1014.8hPa SW 5.0mph /  8km/h 12.0mph /  19.3km/h 85% 0.12in /  3.05mm
09:54 55.9 °F /  13.3 °C 51.1 °F /  10.6 °C 29.97in /  1014.8hPa SW 2.0mph /  3.2km/h 9.0mph /  14.5km/h 84% 0.12in /  3.05mm
09:59 56.5 °F /  13.6 °C 51.7 °F /  10.9 °C 29.97in /  1014.8hPa WNW 1.0mph /  1.6km/h 7.0mph /  11.3km/h 84% 0.11in /  2.79mm
10:04 56.7 °F /  13.7 °C 50.9 °F /  10.5 °C 29.97in /  1014.8hPa West 3.0mph /  4.8km/h 7.0mph /  11.3km/h 81% 0.09in /  2.29mm
10:09 57.0 °F /  13.9 °C 51.6 °F /  10.9 °C 29.97in /  1014.8hPa West 3.0mph /  4.8km/h 7.0mph /  11.3km/h 82% 0.09in /  2.29mm
10:14 57.1 °F /  13.9 °C 51.7 °F /  10.9 °C 29.97in /  1014.8hPa WNW 3.0mph /  4.8km/h 7.0mph /  11.3km/h 82% 0.06in /  1.52mm
10:19 57.5 °F /  14.2 °C 52.4 °F /  11.3 °C 29.97in /  1014.8hPa WNW 2.0mph /  3.2km/h 6.0mph /  9.7km/h 83% 0.05in /  1.27mm
10:24 58.0 °F /  14.4 °C 51.5 °F /  10.8 °C 29.97in /  1014.8hPa West 2.0mph /  3.2km/h 7.0mph /  11.3km/h 79% 0.03in /  0.76mm
10:29 58.4 °F /  14.7 °C 51.6 °F /  10.9 °C 29.96in /  1014.4hPa WSW 4.0mph /  6.4km/h 10.0mph /  16.1km/h 78% 0.00in /  0mm
10:34 58.2 °F /  14.6 °C 51.0 °F /  10.6 °C 29.97in /  1014.8hPa SW 9.0mph /  14.5km/h 12.0mph /  19.3km/h 77% 0.00in /  0mm
10:39 58.1 °F /  14.5 °C 50.6 °F /  10.3 °C 29.96in /  1014.4hPa WSW 3.0mph /  4.8km/h 12.0mph /  19.3km/h 76% 0.00in /  0mm
10:44 58.3 °F /  14.6 °C 51.5 °F /  10.8 °C 29.96in /  1014.4hPa SSW 3.0mph /  4.8km/h 8.0mph /  12.9km/h 78% 0.00in /  0mm
10:49 58.8 °F /  14.9 °C 51.6 °F /  10.9 °C 29.96in /  1014.4hPa SW 6.0mph /  9.7km/h 10.0mph /  16.1km/h 77% 0.00in /  0mm
10:54 59.4 °F /  15.2 °C 52.2 °F /  11.2 °C 29.96in /  1014.4hPa SW 6.0mph /  9.7km/h 11.0mph /  17.7km/h 77% 0.00in /  0mm
10:59 60.8 °F /  16 °C 52.5 °F /  11.4 °C 29.96in /  1014.4hPa WSW 4.0mph /  6.4km/h 11.0mph /  17.7km/h 74% 0.00in /  0mm
11:04 60.0 °F /  15.6 °C 51.3 °F /  10.7 °C 29.96in /  1014.4hPa WSW 6.0mph /  9.7km/h 15.0mph /  24.1km/h 73% 0.00in /  0mm
11:09 60.3 °F /  15.7 °C 52.0 °F /  11.1 °C 29.96in /  1014.4hPa SW 6.0mph /  9.7km/h 15.0mph /  24.1km/h 74% 0.00in /  0mm
11:14 61.2 °F /  16.2 °C 51.7 °F /  10.9 °C 29.96in /  1014.4hPa SSW 6.0mph /  9.7km/h 14.0mph /  22.5km/h 71% 0.00in /  0mm
11:19 62.4 °F /  16.9 °C 52.5 °F /  11.4 °C 29.96in /  1014.4hPa SW 5.0mph /  8km/h 11.0mph /  17.7km/h 70% 0.00in /  0mm
11:24 62.5 °F /  16.9 °C 51.4 °F /  10.8 °C 29.96in /  1014.4hPa WSW 6.0mph /  9.7km/h 11.0mph /  17.7km/h 67% 0.00in /  0mm
11:29 62.3 °F /  16.8 °C 51.6 °F /  10.9 °C 29.96in /  1014.4hPa SW 3.0mph /  4.8km/h 13.0mph /  20.9km/h 68% 0.00in /  0mm
11:34 61.4 °F /  16.3 °C 50.7 °F /  10.4 °C 29.96in /  1014.4hPa SW 5.0mph /  8km/h 13.0mph /  20.9km/h 68% 0.00in /  0mm
11:39 61.2 °F /  16.2 °C 50.9 °F /  10.5 °C 29.95in /  1014.1hPa WSW 5.0mph /  8km/h 11.0mph /  17.7km/h 69% 0.00in /  0mm
11:44 63.6 °F /  17.6 °C 53.6 °F /  12 °C 29.95in /  1014.1hPa SW 5.0mph /  8km/h 11.0mph /  17.7km/h 70% 0.00in /  0mm
11:49 63.9 °F /  17.7 °C 53.5 °F /  11.9 °C 29.96in /  1014.4hPa WSW 9.0mph /  14.5km/h 12.0mph /  19.3km/h 69% 0.00in /  0mm
11:54 64.2 °F /  17.9 °C 53.0 °F /  11.7 °C 29.95in /  1014.1hPa West 7.0mph /  11.3km/h 10.0mph /  16.1km/h 67% 0.00in /  0mm
11:59 63.3 °F /  17.4 °C 50.9 °F /  10.5 °C 29.95in /  1014.1hPa West 6.0mph /  9.7km/h 17.0mph /  27.4km/h 64% 0.00in /  0mm
12:04 61.9 °F /  16.6 °C 49.2 °F /  9.6 °C 29.96in /  1014.4hPa WSW 8.0mph /  12.9km/h 17.0mph /  27.4km/h 63% 0.00in /  0mm
12:09 60.9 °F /  16.1 °C 51.4 °F /  10.8 °C 29.96in /  1014.4hPa West 6.0mph /  9.7km/h 17.0mph /  27.4km/h 71% 0.00in /  0mm
12:14 59.6 °F /  15.3 °C 50.9 °F /  10.5 °C 29.96in /  1014.4hPa West 3.0mph /  4.8km/h 9.0mph /  14.5km/h 73% 0.01in /  0.25mm
12:19 59.1 °F /  15.1 °C 51.5 °F /  10.8 °C 29.96in /  1014.4hPa West 2.0mph /  3.2km/h 6.0mph /  9.7km/h 76% 0.01in /  0.25mm
12:24 59.3 °F /  15.2 °C 51.7 °F /  10.9 °C 29.96in /  1014.4hPa WSW 11.0mph /  17.7km/h 11.0mph /  17.7km/h 76% 0.01in /  0.25mm
12:29 59.7 °F /  15.4 °C 52.1 °F /  11.2 °C 29.96in /  1014.4hPa West 4.0mph /  6.4km/h 11.0mph /  17.7km/h 76% 0.01in /  0.25mm
12:34 60.2 °F /  15.7 °C 52.6 °F /  11.4 °C 29.96in /  1014.4hPa WSW 4.0mph /  6.4km/h 11.0mph /  17.7km/h 76% 0.01in /  0.25mm
12:39 61.4 °F /  16.3 °C 53.0 °F /  11.7 °C 29.95in /  1014.1hPa SW 5.0mph /  8km/h 11.0mph /  17.7km/h 74% 0.01in /  0.25mm
12:44 61.8 °F /  16.6 °C 53.8 °F /  12.1 °C 29.95in /  1014.1hPa SW 6.0mph /  9.7km/h 14.0mph /  22.5km/h 75% 0.01in /  0.25mm
12:49 61.9 °F /  16.6 °C 52.8 °F /  11.6 °C 29.95in /  1014.1hPa WSW 7.0mph /  11.3km/h 19.0mph /  30.6km/h 72% 0.01in /  0.25mm
12:54 63.0 °F /  17.2 °C 54.2 °F /  12.3 °C 29.95in /  1014.1hPa WSW 8.0mph /  12.9km/h 19.0mph /  30.6km/h 73% 0.01in /  0.25mm
12:59 62.6 °F /  17 °C 52.3 °F /  11.3 °C 29.95in /  1014.1hPa WSW 8.0mph /  12.9km/h 17.0mph /  27.4km/h 69% 0.01in /  0.25mm
13:04 62.1 °F /  16.7 °C 53.7 °F /  12.1 °C 29.96in /  1014.4hPa WSW 8.0mph /  12.9km/h 13.0mph /  20.9km/h 74% 0.01in /  0.25mm
13:09 62.6 °F /  17 °C 54.2 °F /  12.3 °C 29.96in /  1014.4hPa SW 11.0mph /  17.7km/h 19.0mph /  30.6km/h 74% 0.01in /  0.25mm
13:14 63.9 °F /  17.7 °C 53.5 °F /  11.9 °C 29.96in /  1014.4hPa West 9.0mph /  14.5km/h 18.0mph /  29km/h 69% 0.00in /  0mm
13:19 64.7 °F /  18.2 °C 54.3 °F /  12.4 °C 29.95in /  1014.1hPa SW 13.0mph /  20.9km/h 17.0mph /  27.4km/h 69% 0.00in /  0mm
13:24 63.8 °F /  17.7 °C 52.6 °F /  11.4 °C 29.95in /  1014.1hPa WSW 12.0mph /  19.3km/h 20.0mph /  32.2km/h 67% 0.00in /  0mm
13:29 62.9 °F /  17.2 °C 52.6 °F /  11.4 °C 29.96in /  1014.4hPa WSW 13.0mph /  20.9km/h 22.0mph /  35.4km/h 69% 0.00in /  0mm
13:34 62.4 °F /  16.9 °C 52.5 °F /  11.4 °C 29.96in /  1014.4hPa WSW 10.0mph /  16.1km/h 22.0mph /  35.4km/h 70% 0.00in /  0mm
13:39 62.5 °F /  16.9 °C 53.0 °F /  11.7 °C 29.96in /  1014.4hPa WSW 9.0mph /  14.5km/h 20.0mph /  32.2km/h 71% 0.00in /  0mm
13:44 62.5 °F /  16.9 °C 54.1 °F /  12.3 °C 29.96in /  1014.4hPa West 8.0mph /  12.9km/h 18.0mph /  29km/h 74% 0.00in /  0mm
13:49 62.3 °F /  16.8 °C 54.6 °F /  12.6 °C 29.96in /  1014.4hPa West 7.0mph /  11.3km/h 18.0mph /  29km/h 76% 0.00in /  0mm
13:54 63.9 °F /  17.7 °C 54.3 °F /  12.4 °C 29.96in /  1014.4hPa WSW 7.0mph /  11.3km/h 15.0mph /  24.1km/h 71% 0.00in /  0mm
13:59 64.9 °F /  18.3 °C 53.7 °F /  12.1 °C 29.96in /  1014.4hPa WSW 8.0mph /  12.9km/h 18.0mph /  29km/h 67% 0.00in /  0mm
14:04 65.0 °F /  18.3 °C 54.2 °F /  12.3 °C 29.96in /  1014.4hPa SW 5.0mph /  8km/h 19.0mph /  30.6km/h 68% 0.00in /  0mm
14:09 64.4 °F /  18 °C 53.6 °F /  12 °C 29.96in /  1014.4hPa SW 8.0mph /  12.9km/h 17.0mph /  27.4km/h 68% 0.00in /  0mm
14:14 64.1 °F /  17.8 °C 52.5 °F /  11.4 °C 29.96in /  1014.4hPa WNW 5.0mph /  8km/h 17.0mph /  27.4km/h 66% 0.00in /  0mm
14:19 64.1 °F /  17.8 °C 51.7 °F /  10.9 °C 29.96in /  1014.4hPa West 5.0mph /  8km/h 20.0mph /  32.2km/h 64% 0.00in /  0mm
14:24 64.8 °F /  18.2 °C 52.3 °F /  11.3 °C 29.96in /  1014.4hPa WSW 10.0mph /  16.1km/h 19.0mph /  30.6km/h 64% 0.00in /  0mm
14:29 63.7 °F /  17.6 °C 52.5 °F /  11.4 °C 29.96in /  1014.4hPa WSW 9.0mph /  14.5km/h 19.0mph /  30.6km/h 67% 0.00in /  0mm
14:34 62.8 °F /  17.1 °C 53.3 °F /  11.8 °C 29.97in /  1014.8hPa WSW 9.0mph /  14.5km/h 18.0mph /  29km/h 71% 0.00in /  0mm
14:39 62.5 °F /  16.9 °C 53.3 °F /  11.8 °C 29.97in /  1014.8hPa WSW 9.0mph /  14.5km/h 18.0mph /  29km/h 72% 0.00in /  0mm
14:44 60.6 °F /  15.9 °C 52.3 °F /  11.3 °C 29.97in /  1014.8hPa West 8.0mph /  12.9km/h 17.0mph /  27.4km/h 74% 0.00in /  0mm
14:49 59.6 °F /  15.3 °C 53.8 °F /  12.1 °C 29.97in /  1014.8hPa West 7.0mph /  11.3km/h 17.0mph /  27.4km/h 81% 0.01in /  0.25mm
14:54 59.9 °F /  15.5 °C 54.1 °F /  12.3 °C 29.97in /  1014.8hPa WNW 3.0mph /  4.8km/h 11.0mph /  17.7km/h 81% 0.01in /  0.25mm
14:59 59.8 °F /  15.4 °C 54.0 °F /  12.2 °C 29.97in /  1014.8hPa WSW 6.0mph /  9.7km/h 13.0mph /  20.9km/h 81% 0.01in /  0.25mm
15:04 59.7 °F /  15.4 °C 54.2 °F /  12.3 °C 29.97in /  1014.8hPa WSW 6.0mph /  9.7km/h 13.0mph /  20.9km/h 82% 0.01in /  0.25mm
15:09 59.4 °F /  15.2 °C 53.9 °F /  12.2 °C 29.98in /  1015.1hPa WSW 6.0mph /  9.7km/h 15.0mph /  24.1km/h 82% 0.01in /  0.25mm
15:14 58.7 °F /  14.8 °C 53.2 °F /  11.8 °C 29.97in /  1014.8hPa SW 4.0mph /  6.4km/h 15.0mph /  24.1km/h 82% 0.02in /  0.51mm
15:19 59.1 °F /  15.1 °C 54.3 °F /  12.4 °C 29.97in /  1014.8hPa WSW 10.0mph /  16.1km/h 12.0mph /  19.3km/h 84% 0.02in /  0.51mm
15:24 61.1 °F /  16.2 °C 55.9 °F /  13.3 °C 29.97in /  1014.8hPa West 3.0mph /  4.8km/h 15.0mph /  24.1km/h 83% 0.02in /  0.51mm
15:29 62.0 °F /  16.7 °C 56.1 °F /  13.4 °C 29.97in /  1014.8hPa West 7.0mph /  11.3km/h 15.0mph /  24.1km/h 81% 0.02in /  0.51mm
15:34 62.7 °F /  17.1 °C 56.4 °F /  13.6 °C 29.97in /  1014.8hPa West 6.0mph /  9.7km/h 13.0mph /  20.9km/h 80% 0.02in /  0.51mm
15:39 62.8 °F /  17.1 °C 55.5 °F /  13.1 °C 29.97in /  1014.8hPa WSW 6.0mph /  9.7km/h 12.0mph /  19.3km/h 77% 0.02in /  0.51mm
15:44 63.1 °F /  17.3 °C 56.1 °F /  13.4 °C 29.97in /  1014.8hPa NW 8.0mph /  12.9km/h 15.0mph /  24.1km/h 78% 0.02in /  0.51mm
15:49 62.9 °F /  17.2 °C 53.4 °F /  11.9 °C 29.97in /  1014.8hPa WSW 14.0mph /  22.5km/h 16.0mph /  25.7km/h 71% 0.01in /  0.25mm
15:54 61.9 °F /  16.6 °C 53.9 °F /  12.2 °C 29.97in /  1014.8hPa West 7.0mph /  11.3km/h 17.0mph /  27.4km/h 75% 0.01in /  0.25mm
15:59 62.6 °F /  17 °C 53.8 °F /  12.1 °C 29.97in /  1014.8hPa West 8.0mph /  12.9km/h 17.0mph /  27.4km/h 73% 0.01in /  0.25mm
16:04 62.7 °F /  17.1 °C 53.5 °F /  11.9 °C 29.97in /  1014.8hPa West 8.0mph /  12.9km/h 14.0mph /  22.5km/h 72% 0.01in /  0.25mm
16:09 62.8 °F /  17.1 °C 54.8 °F /  12.7 °C 29.97in /  1014.8hPa West 7.0mph /  11.3km/h 13.0mph /  20.9km/h 75% 0.01in /  0.25mm
16:14 62.7 °F /  17.1 °C 53.5 °F /  11.9 °C 29.97in /  1014.8hPa West 6.0mph /  9.7km/h 15.0mph /  24.1km/h 72% 0.00in /  0mm
16:19 62.7 °F /  17.1 °C 53.9 °F /  12.2 °C 29.97in /  1014.8hPa WNW 14.0mph /  22.5km/h 14.0mph /  22.5km/h 73% 0.00in /  0mm
16:24 62.2 °F /  16.8 °C 53.8 °F /  12.1 °C 29.98in /  1015.1hPa WNW 6.0mph /  9.7km/h 14.0mph /  22.5km/h 74% 0.00in /  0mm
16:29 61.7 °F /  16.5 °C 54.1 °F /  12.3 °C 29.98in /  1015.1hPa West 6.0mph /  9.7km/h 14.0mph /  22.5km/h 76% 0.00in /  0mm
16:34 61.3 °F /  16.3 °C 53.7 °F /  12.1 °C 29.98in /  1015.1hPa WSW 4.0mph /  6.4km/h 15.0mph /  24.1km/h 76% 0.00in /  0mm
16:39 61.1 °F /  16.2 °C 53.8 °F /  12.1 °C 29.98in /  1015.1hPa West 8.0mph /  12.9km/h 9.0mph /  14.5km/h 77% 0.00in /  0mm
16:44 61.0 °F /  16.1 °C 54.1 °F /  12.3 °C 29.98in /  1015.1hPa West 9.0mph /  14.5km/h 13.0mph /  20.9km/h 78% 0.00in /  0mm
16:49 61.0 °F /  16.1 °C 53.0 °F /  11.7 °C 29.98in /  1015.1hPa West 5.0mph /  8km/h 12.0mph /  19.3km/h 75% 0.00in /  0mm
16:54 61.4 °F /  16.3 °C 53.8 °F /  12.1 °C 29.98in /  1015.1hPa West 3.0mph /  4.8km/h 9.0mph /  14.5km/h 76% 0.00in /  0mm
16:59 61.6 °F /  16.4 °C 53.2 °F /  11.8 °C 29.98in /  1015.1hPa West 6.0mph /  9.7km/h 12.0mph /  19.3km/h 74% 0.00in /  0mm
17:04 61.7 °F /  16.5 °C 53.7 °F /  12.1 °C 29.98in /  1015.1hPa West 6.0mph /  9.7km/h 12.0mph /  19.3km/h 75% 0.00in /  0mm
17:09 61.8 °F /  16.6 °C 53.4 °F /  11.9 °C 29.98in /  1015.1hPa West 7.0mph /  11.3km/h 12.0mph /  19.3km/h 74% 0.00in /  0mm
17:14 61.9 °F /  16.6 °C 53.5 °F /  11.9 °C 29.98in /  1015.1hPa WSW 3.0mph /  4.8km/h 12.0mph /  19.3km/h 74% 0.00in /  0mm
17:19 62.0 °F /  16.7 °C 54.0 °F /  12.2 °C 29.98in /  1015.1hPa WSW 5.0mph /  8km/h 13.0mph /  20.9km/h 75% 0.00in /  0mm
17:24 62.0 °F /  16.7 °C 54.0 °F /  12.2 °C 29.98in /  1015.1hPa West 9.0mph /  14.5km/h 12.0mph /  19.3km/h 75% 0.00in /  0mm
17:29 62.1 °F /  16.7 °C 53.7 °F /  12.1 °C 29.98in /  1015.1hPa West 6.0mph /  9.7km/h 12.0mph /  19.3km/h 74% 0.00in /  0mm
17:34 62.1 °F /  16.7 °C 53.3 °F /  11.8 °C 29.98in /  1015.1hPa WSW 7.0mph /  11.3km/h 14.0mph /  22.5km/h 73% 0.00in /  0mm
17:39 62.6 °F /  17 °C 53.8 °F /  12.1 °C 29.98in /  1015.1hPa WSW 6.0mph /  9.7km/h 14.0mph /  22.5km/h 73% 0.00in /  0mm
17:44 63.2 °F /  17.3 °C 54.8 °F /  12.7 °C 29.97in /  1014.8hPa WSW 4.0mph /  6.4km/h 11.0mph /  17.7km/h 74% 0.00in /  0mm
17:49 64.2 °F /  17.9 °C 55.7 °F /  13.2 °C 29.97in /  1014.8hPa WSW 6.0mph /  9.7km/h 11.0mph /  17.7km/h 74% 0.00in /  0mm
17:54 65.3 °F /  18.5 °C 55.7 °F /  13.2 °C 29.97in /  1014.8hPa SW 10.0mph /  16.1km/h 15.0mph /  24.1km/h 71% 0.00in /  0mm
17:59 65.5 °F /  18.6 °C 55.1 °F /  12.8 °C 29.97in /  1014.8hPa WSW 6.0mph /  9.7km/h 15.0mph /  24.1km/h 69% 0.00in /  0mm
18:04 65.8 °F /  18.8 °C 55.3 °F /  12.9 °C 29.97in /  1014.8hPa WNW 5.0mph /  8km/h 11.0mph /  17.7km/h 69% 0.00in /  0mm
18:09 66.6 °F /  19.2 °C 55.7 °F /  13.2 °C 29.97in /  1014.8hPa West 4.0mph /  6.4km/h 11.0mph /  17.7km/h 68% 0.00in /  0mm
18:14 66.4 °F /  19.1 °C 54.7 °F /  12.6 °C 29.97in /  1014.8hPa WSW 4.0mph /  6.4km/h 9.0mph /  14.5km/h 66% 0.00in /  0mm
18:19 66.0 °F /  18.9 °C 53.9 °F /  12.2 °C 29.97in /  1014.8hPa SW 11.0mph /  17.7km/h 11.0mph /  17.7km/h 65% 0.00in /  0mm
18:24 66.1 °F /  18.9 °C 53.6 °F /  12 °C 29.96in /  1014.4hPa WSW 8.0mph /  12.9km/h 12.0mph /  19.3km/h 64% 0.00in /  0mm
18:29 65.9 °F /  18.8 °C 53.8 °F /  12.1 °C 29.97in /  1014.8hPa WSW 5.0mph /  8km/h 12.0mph /  19.3km/h 65% 0.00in /  0mm
18:34 65.9 °F /  18.8 °C 53.4 °F /  11.9 °C 29.97in /  1014.8hPa West 5.0mph /  8km/h 10.0mph /  16.1km/h 64% 0.00in /  0mm
18:39 66.1 °F /  18.9 °C 54.4 °F /  12.4 °C 29.97in /  1014.8hPa West 5.0mph /  8km/h 10.0mph /  16.1km/h 66% 0.00in /  0mm
18:44 66.2 °F /  19 °C 53.7 °F /  12.1 °C 29.97in /  1014.8hPa West 5.0mph /  8km/h 10.0mph /  16.1km/h 64% 0.00in /  0mm
18:49 66.2 °F /  19 °C 53.7 °F /  12.1 °C 29.97in /  1014.8hPa West 5.0mph /  8km/h 10.0mph /  16.1km/h 64% 0.00in /  0mm
18:54 65.9 °F /  18.8 °C 52.9 °F /  11.6 °C 29.97in /  1014.8hPa West 3.0mph /  4.8km/h 10.0mph /  16.1km/h 63% 0.00in /  0mm
18:59 66.0 °F /  18.9 °C 53.0 °F /  11.7 °C 29.97in /  1014.8hPa WNW 6.0mph /  9.7km/h 8.0mph /  12.9km/h 63% 0.00in /  0mm
19:04 66.2 °F /  19 °C 53.7 °F /  12.1 °C 29.97in /  1014.8hPa WSW 5.0mph /  8km/h 7.0mph /  11.3km/h 64% 0.00in /  0mm
19:09 65.8 °F /  18.8 °C 52.4 °F /  11.3 °C 29.97in /  1014.8hPa WSW 3.0mph /  4.8km/h 12.0mph /  19.3km/h 62% 0.00in /  0mm
19:14 65.7 °F /  18.7 °C 52.8 °F /  11.6 °C 29.97in /  1014.8hPa West 5.0mph /  8km/h 8.0mph /  12.9km/h 63% 0.00in /  0mm
19:19 65.6 °F /  18.7 °C 52.2 °F /  11.2 °C 29.97in /  1014.8hPa West 5.0mph /  8km/h 10.0mph /  16.1km/h 62% 0.00in /  0mm
19:24 65.1 °F /  18.4 °C 52.2 °F /  11.2 °C 29.97in /  1014.8hPa West 3.0mph /  4.8km/h 9.0mph /  14.5km/h 63% 0.00in /  0mm
19:29 64.6 °F /  18.1 °C 52.6 °F /  11.4 °C 29.97in /  1014.8hPa West 4.0mph /  6.4km/h 9.0mph /  14.5km/h 65% 0.00in /  0mm
19:34 64.7 °F /  18.2 °C 52.2 °F /  11.2 °C 29.97in /  1014.8hPa West 3.0mph /  4.8km/h 8.0mph /  12.9km/h 64% 0.00in /  0mm
19:39 64.8 °F /  18.2 °C 52.3 °F /  11.3 °C 29.98in /  1015.1hPa West 4.0mph /  6.4km/h 8.0mph /  12.9km/h 64% 0.00in /  0mm
19:44 64.9 °F /  18.3 °C 52.0 °F /  11.1 °C 29.98in /  1015.1hPa West 3.0mph /  4.8km/h 7.0mph /  11.3km/h 63% 0.00in /  0mm
19:49 64.7 °F /  18.2 °C 52.2 °F /  11.2 °C 29.98in /  1015.1hPa West 2.0mph /  3.2km/h 6.0mph /  9.7km/h 64% 0.00in /  0mm
19:54 64.3 °F /  17.9 °C 51.9 °F /  11.1 °C 29.99in /  1015.5hPa WNW 3.0mph /  4.8km/h 8.0mph /  12.9km/h 64% 0.00in /  0mm
19:59 63.9 °F /  17.7 °C 52.3 °F /  11.3 °C 29.99in /  1015.5hPa West 3.0mph /  4.8km/h 8.0mph /  12.9km/h 66% 0.00in /  0mm
20:04 63.7 °F /  17.6 °C 52.1 °F /  11.2 °C 29.99in /  1015.5hPa West 3.0mph /  4.8km/h 6.0mph /  9.7km/h 66% 0.00in /  0mm
20:09 63.9 °F /  17.7 °C 52.3 °F /  11.3 °C 29.99in /  1015.5hPa West 2.0mph /  3.2km/h 5.0mph /  8km/h 66% 0.00in /  0mm
20:14 64.0 °F /  17.8 °C 52.8 °F /  11.6 °C 29.99in /  1015.5hPa West 2.0mph /  3.2km/h 4.0mph /  6.4km/h 67% 0.00in /  0mm
20:19 64.2 °F /  17.9 °C 52.6 °F /  11.4 °C 29.99in /  1015.5hPa West 2.0mph /  3.2km/h 5.0mph /  8km/h 66% 0.00in /  0mm
20:24 64.5 °F /  18.1 °C 53.3 °F /  11.8 °C 29.99in /  1015.5hPa West 2.0mph /  3.2km/h 5.0mph /  8km/h 67% 0.00in /  0mm
20:29 64.7 °F /  18.2 °C 53.1 °F /  11.7 °C 29.99in /  1015.5hPa West 2.0mph /  3.2km/h 6.0mph /  9.7km/h 66% 0.00in /  0mm
20:34 64.5 °F /  18.1 °C 52.9 °F /  11.6 °C 29.99in /  1015.5hPa West 2.0mph /  3.2km/h 6.0mph /  9.7km/h 66% 0.00in /  0mm
20:39 64.2 °F /  17.9 °C 53.0 °F /  11.7 °C 29.99in /  1015.5hPa West 2.0mph /  3.2km/h 4.0mph /  6.4km/h 67% 0.00in /  0mm
20:44 64.1 °F /  17.8 °C 52.9 °F /  11.6 °C 30.00in /  1015.8hPa Calm   6.0mph /  9.7km/h 67% 0.00in /  0mm
20:49 63.8 °F /  17.7 °C 52.6 °F /  11.4 °C 30.00in /  1015.8hPa West 1.0mph /  1.6km/h 4.0mph /  6.4km/h 67% 0.00in /  0mm
20:54 63.7 °F /  17.6 °C 52.5 °F /  11.4 °C 30.00in /  1015.8hPa West 2.0mph /  3.2km/h 5.0mph /  8km/h 67% 0.00in /  0mm
20:59 63.5 °F /  17.5 °C 52.3 °F /  11.3 °C 30.00in /  1015.8hPa West 2.0mph /  3.2km/h 5.0mph /  8km/h 67% 0.00in /  0mm
21:04 63.2 °F /  17.3 °C 52.5 °F /  11.4 °C 30.00in /  1015.8hPa West 2.0mph /  3.2km/h 3.0mph /  4.8km/h 68% 0.00in /  0mm
21:09 63.0 °F /  17.2 °C 52.3 °F /  11.3 °C 30.00in /  1015.8hPa West 1.0mph /  1.6km/h 3.0mph /  4.8km/h 68% 0.00in /  0mm
21:14 62.8 °F /  17.1 °C 52.5 °F /  11.4 °C 30.00in /  1015.8hPa Calm   2.0mph /  3.2km/h 69% 0.00in /  0mm
21:19 62.4 °F /  16.9 °C 52.1 °F /  11.2 °C 30.00in /  1015.8hPa Calm   1.0mph /  1.6km/h 69% 0.00in /  0mm
21:24 62.2 °F /  16.8 °C 52.3 °F /  11.3 °C 30.00in /  1015.8hPa Calm   3.0mph /  4.8km/h 70% 0.00in /  0mm
21:29 62.3 °F /  16.8 °C 52.4 °F /  11.3 °C 30.00in /  1015.8hPa West 1.0mph /  1.6km/h 5.0mph /  8km/h 70% 0.00in /  0mm
21:34 62.5 °F /  16.9 °C 51.8 °F /  11 °C 30.01in /  1016.1hPa West 4.0mph /  6.4km/h 5.0mph /  8km/h 68% 0.00in /  0mm
21:39 62.7 °F /  17.1 °C 51.6 °F /  10.9 °C 30.01in /  1016.1hPa West 4.0mph /  6.4km/h 4.0mph /  6.4km/h 67% 0.00in /  0mm
21:44 62.8 °F /  17.1 °C 50.9 °F /  10.5 °C 30.01in /  1016.1hPa West 3.0mph /  4.8km/h 7.0mph /  11.3km/h 65% 0.00in /  0mm
21:49 62.9 °F /  17.2 °C 50.5 °F /  10.3 °C 30.01in /  1016.1hPa West 1.0mph /  1.6km/h 7.0mph /  11.3km/h 64% 0.00in /  0mm
21:54 62.8 °F /  17.1 °C 50.4 °F /  10.2 °C 30.01in /  1016.1hPa WNW 2.0mph /  3.2km/h 5.0mph /  8km/h 64% 0.00in /  0mm
21:59 62.6 °F /  17 °C 50.2 °F /  10.1 °C 30.02in /  1016.5hPa West 2.0mph /  3.2km/h 7.0mph /  11.3km/h 64% 0.00in /  0mm
22:04 62.4 °F /  16.9 °C 50.1 °F /  10.1 °C 30.02in /  1016.5hPa West 3.0mph /  4.8km/h 7.0mph /  11.3km/h 64% 0.00in /  0mm
22:09 62.2 °F /  16.8 °C 49.9 °F /  9.9 °C 30.02in /  1016.5hPa WSW 3.0mph /  4.8km/h 7.0mph /  11.3km/h 64% 0.00in /  0mm
22:14 62.2 °F /  16.8 °C 49.4 °F /  9.7 °C 30.02in /  1016.5hPa WSW 3.0mph /  4.8km/h 7.0mph /  11.3km/h 63% 0.00in /  0mm
22:19 61.9 °F /  16.6 °C 49.2 °F /  9.6 °C 30.02in /  1016.5hPa West 2.0mph /  3.2km/h 5.0mph /  8km/h 63% 0.00in /  0mm
22:24 61.7 °F /  16.5 °C 48.5 °F /  9.2 °C 30.02in /  1016.5hPa West 3.0mph /  4.8km/h 6.0mph /  9.7km/h 62% 0.00in /  0mm
22:29 61.4 °F /  16.3 °C 48.7 °F /  9.3 °C 30.02in /  1016.5hPa West 3.0mph /  4.8km/h 6.0mph /  9.7km/h 63% 0.00in /  0mm
22:34 61.2 °F /  16.2 °C 48.9 °F /  9.4 °C 30.02in /  1016.5hPa West 2.0mph /  3.2km/h 6.0mph /  9.7km/h 64% 0.00in /  0mm
22:39 60.9 °F /  16.1 °C 48.6 °F /  9.2 °C 30.02in /  1016.5hPa West 2.0mph /  3.2km/h 5.0mph /  8km/h 64% 0.00in /  0mm
22:44 60.7 °F /  15.9 °C 48.4 °F /  9.1 °C 30.02in /  1016.5hPa Calm   4.0mph /  6.4km/h 64% 0.00in /  0mm
22:49 60.3 °F /  15.7 °C 48.5 °F /  9.2 °C 30.03in /  1016.8hPa SW 2.0mph /  3.2km/h 3.0mph /  4.8km/h 65% 0.00in /  0mm
22:54 59.9 °F /  15.5 °C 48.1 °F /  8.9 °C 30.03in /  1016.8hPa WSW 1.0mph /  1.6km/h 3.0mph /  4.8km/h 65% 0.00in /  0mm
22:59 59.8 °F /  15.4 °C 48.0 °F /  8.9 °C 30.03in /  1016.8hPa WSW 2.0mph /  3.2km/h 4.0mph /  6.4km/h 65% 0.00in /  0mm
23:04 59.8 °F /  15.4 °C 47.6 °F /  8.7 °C 30.03in /  1016.8hPa WSW 2.0mph /  3.2km/h 4.0mph /  6.4km/h 64% 0.00in /  0mm
23:09 59.6 °F /  15.3 °C 47.4 °F /  8.6 °C 30.03in /  1016.8hPa WSW 2.0mph /  3.2km/h 4.0mph /  6.4km/h 64% 0.00in /  0mm
23:14 59.6 °F /  15.3 °C 47.8 °F /  8.8 °C 30.03in /  1016.8hPa WSW 4.0mph /  6.4km/h 5.0mph /  8km/h 65% 0.00in /  0mm
23:19 59.7 °F /  15.4 °C 48.3 °F /  9.1 °C 30.04in /  1017.2hPa West 4.0mph /  6.4km/h 4.0mph /  6.4km/h 66% 0.00in /  0mm
23:24 59.9 °F /  15.5 °C 49.3 °F /  9.6 °C 30.04in /  1017.2hPa WSW 2.0mph /  3.2km/h 5.0mph /  8km/h 68% 0.00in /  0mm
23:29 60.2 °F /  15.7 °C 50.4 °F /  10.2 °C 30.04in /  1017.2hPa West 2.0mph /  3.2km/h 5.0mph /  8km/h 70% 0.00in /  0mm
23:34 60.5 °F /  15.8 °C 51.4 °F /  10.8 °C 30.04in /  1017.2hPa WSW 2.0mph /  3.2km/h 5.0mph /  8km/h 72% 0.00in /  0mm
23:39 60.6 °F /  15.9 °C 51.9 °F /  11.1 °C 30.04in /  1017.2hPa West 2.0mph /  3.2km/h 5.0mph /  8km/h 73% 0.00in /  0mm
23:44 60.8 °F /  16 °C 52.1 °F /  11.2 °C 30.04in /  1017.2hPa West 3.0mph /  4.8km/h 6.0mph /  9.7km/h 73% 0.00in /  0mm
23:49 60.9 °F /  16.1 °C 52.6 °F /  11.4 °C 30.04in /  1017.2hPa West 3.0mph /  4.8km/h 7.0mph /  11.3km/h 74% 0.00in /  0mm
23:54 61.0 °F /  16.1 °C 52.7 °F /  11.5 °C 30.04in /  1017.2hPa West 1.0mph /  1.6km/h 5.0mph /  8km/h 74% 0.00in /  0mm
23:59 61.0 °F /  16.1 °C 52.7 °F /  11.5 °C 30.04in /  1017.2hPa West 1.0mph /  1.6km/h 5.0mph /  8km/h 74% 0.00in /  0mm
Buffalo, New York, USA
Compliments of Weather Underground - 2.5 mb